createdAt,value
2023-05-19T00:01:19.243Z,78.09
2023-05-19T00:03:54.672Z,78.26
2023-05-19T00:06:27.322Z,78.60
2023-05-19T00:08:58.919Z,78.76
2023-05-19T00:11:27.088Z,78.90
2023-05-19T00:13:55.224Z,79.04
2023-05-19T00:16:22.929Z,78.95
2023-05-19T00:18:49.936Z,78.90
2023-05-19T00:21:16.943Z,78.96
2023-05-19T00:23:43.739Z,79.04
2023-05-19T00:26:11.170Z,79.32
2023-05-19T00:28:38.020Z,79.27
2023-05-19T00:31:07.900Z,79.50
2023-05-19T00:33:34.943Z,79.78
2023-05-19T00:36:05.952Z,80.01
2023-05-19T00:38:34.085Z,80.05
2023-05-19T00:41:02.152Z,80.31
2023-05-19T00:43:30.347Z,80.52
2023-05-19T00:45:57.863Z,80.68
2023-05-19T00:48:26.154Z,80.68
2023-05-19T00:51:02.435Z,81.08
2023-05-19T00:53:29.581Z,81.33
2023-05-19T00:55:56.627Z,81.32
2023-05-19T00:58:25.745Z,81.69
2023-05-19T01:00:53.156Z,81.87
2023-05-19T01:03:20.776Z,81.84
2023-05-19T01:05:53.844Z,81.80
2023-05-19T01:08:20.755Z,81.60
2023-05-19T01:10:48.623Z,81.75
2023-05-19T01:13:15.750Z,81.83
2023-05-19T01:15:58.008Z,81.85
2023-05-19T01:18:38.920Z,81.61
2023-05-19T01:21:36.567Z,81.43
2023-05-19T01:24:23.060Z,81.02
2023-05-19T01:27:02.069Z,80.70
2023-05-19T01:29:39.480Z,80.50
2023-05-19T01:32:08.022Z,80.46
2023-05-19T01:34:40.195Z,80.22
2023-05-19T01:37:08.101Z,79.95
2023-05-19T01:39:36.330Z,79.80
2023-05-19T01:42:04.449Z,79.40
2023-05-19T01:44:33.624Z,79.00
2023-05-19T01:47:01.024Z,78.59
2023-05-19T01:49:27.769Z,78.32
2023-05-19T01:51:54.581Z,78.46
2023-05-19T01:54:21.623Z,78.36
2023-05-19T01:57:00.210Z,78.34
2023-05-19T01:59:39.125Z,78.32
2023-05-19T02:02:26.497Z,78.18
2023-05-19T02:05:00.964Z,78.11
2023-05-19T02:07:57.114Z,78.34
2023-05-19T02:10:31.124Z,78.06
2023-05-19T02:13:04.773Z,78.25
2023-05-19T02:15:39.039Z,78.30
2023-05-19T02:18:09.557Z,78.13
2023-05-19T02:20:36.401Z,78.02
2023-05-19T02:23:03.201Z,77.79
2023-05-19T02:25:29.983Z,77.98
2023-05-19T02:27:58.485Z,77.96
2023-05-19T02:30:25.424Z,77.82
2023-05-19T02:32:54.358Z,77.91
2023-05-19T02:35:21.666Z,77.77
2023-05-19T02:37:51.768Z,77.85
2023-05-19T02:40:18.545Z,77.82
2023-05-19T02:42:45.567Z,78.00
2023-05-19T02:45:12.291Z,77.80
2023-05-19T02:47:39.216Z,78.00
2023-05-19T02:50:06.584Z,77.75
2023-05-19T02:52:33.461Z,77.75
2023-05-19T02:55:00.472Z,77.78
2023-05-19T02:57:27.322Z,77.68
2023-05-19T02:59:54.085Z,77.89
2023-05-19T03:02:20.924Z,77.84
2023-05-19T03:04:47.991Z,77.88
2023-05-19T03:07:15.675Z,78.08
2023-05-19T03:09:42.610Z,77.97
2023-05-19T03:12:09.684Z,78.03
2023-05-19T03:14:39.261Z,77.93
2023-05-19T03:17:08.128Z,77.93
2023-05-19T03:19:35.043Z,78.08
2023-05-19T03:22:01.845Z,77.95
2023-05-19T03:24:28.575Z,78.07
2023-05-19T03:26:55.815Z,78.02
2023-05-19T03:29:22.711Z,78.11
2023-05-19T03:31:49.418Z,77.93
2023-05-19T03:34:16.264Z,78.28
2023-05-19T03:36:43.241Z,78.05
2023-05-19T03:39:10.076Z,78.13
2023-05-19T03:41:37.317Z,78.21
2023-05-19T03:44:04.304Z,78.23
2023-05-19T03:46:31.086Z,78.40
2023-05-19T03:48:58.348Z,78.25
2023-05-19T03:51:25.135Z,78.36
2023-05-19T03:53:52.732Z,78.13
2023-05-19T03:56:20.925Z,78.28
2023-05-19T03:58:48.344Z,78.37
2023-05-19T04:01:15.385Z,78.57
2023-05-19T04:03:42.220Z,78.63
2023-05-19T04:06:09.154Z,78.55
2023-05-19T04:08:36.296Z,78.34
2023-05-19T04:11:03.162Z,78.47
2023-05-19T04:13:29.963Z,78.23
2023-05-19T04:15:56.763Z,78.32
2023-05-19T04:18:23.459Z,78.45
2023-05-19T04:20:50.158Z,78.51
2023-05-19T04:23:16.900Z,78.45
2023-05-19T04:25:43.725Z,78.50
2023-05-19T04:28:10.530Z,78.44
2023-05-19T04:30:38.722Z,78.68
2023-05-19T04:33:05.572Z,78.67
2023-05-19T04:35:32.344Z,78.77
2023-05-19T04:37:59.125Z,78.78
2023-05-19T04:40:25.937Z,78.83
2023-05-19T04:42:55.353Z,78.98
2023-05-19T04:45:23.402Z,78.96
2023-05-19T04:47:50.158Z,78.70
2023-05-19T04:50:17.167Z,78.76
2023-05-19T04:52:47.439Z,78.88
2023-05-19T04:55:14.253Z,79.00
2023-05-19T04:57:41.075Z,78.87
2023-05-19T05:00:12.314Z,79.03
2023-05-19T05:02:39.141Z,79.01
2023-05-19T05:05:06.512Z,79.16
2023-05-19T05:07:33.258Z,79.04
2023-05-19T05:09:59.986Z,79.06
2023-05-19T05:12:27.120Z,79.03
2023-05-19T05:14:54.271Z,79.03
2023-05-19T05:17:21.645Z,78.88
2023-05-19T05:19:48.880Z,78.95
2023-05-19T05:22:16.168Z,78.88
2023-05-19T05:24:43.201Z,78.90
2023-05-19T05:27:10.429Z,78.88
2023-05-19T05:29:37.412Z,79.08
2023-05-19T05:32:04.473Z,79.00
2023-05-19T05:34:32.050Z,78.88
2023-05-19T05:36:58.764Z,78.83
2023-05-19T05:39:25.725Z,78.90
2023-05-19T05:41:52.478Z,78.95
2023-05-19T05:44:19.259Z,79.02
2023-05-19T05:46:46.462Z,78.97
2023-05-19T05:49:13.634Z,78.96
2023-05-19T05:51:42.934Z,78.85
2023-05-19T05:54:12.793Z,78.76
2023-05-19T05:56:41.268Z,78.75
2023-05-19T05:59:08.036Z,78.59
2023-05-19T06:01:35.972Z,78.71
2023-05-19T06:04:02.775Z,78.64
2023-05-19T06:06:29.627Z,78.82
2023-05-19T06:08:56.526Z,78.72
2023-05-19T06:11:23.477Z,78.68
2023-05-19T06:13:50.222Z,78.52
2023-05-19T06:16:17.055Z,78.58
2023-05-19T06:18:43.931Z,78.15
2023-05-19T06:21:10.704Z,78.09
2023-05-19T06:23:37.425Z,78.18
2023-05-19T06:26:04.204Z,77.86
2023-05-19T06:28:31.793Z,78.00
2023-05-19T06:30:58.710Z,77.69
2023-05-19T06:33:28.213Z,77.64
2023-05-19T06:35:56.042Z,77.54
2023-05-19T06:38:22.778Z,77.78
2023-05-19T06:40:49.552Z,77.89
2023-05-19T06:43:16.369Z,77.58
2023-05-19T06:45:43.094Z,77.70
2023-05-19T06:48:09.867Z,77.74
2023-05-19T06:50:36.671Z,77.52
2023-05-19T06:53:03.440Z,77.65
2023-05-19T06:55:30.202Z,77.78
2023-05-19T06:57:57.038Z,78.07
2023-05-19T07:00:31.167Z,77.75
2023-05-19T07:02:58.066Z,77.83
2023-05-19T07:05:24.853Z,77.76
2023-05-19T07:07:51.686Z,77.64
2023-05-19T07:10:18.534Z,77.65
2023-05-19T07:12:53.027Z,77.58
2023-05-19T07:15:19.832Z,77.46
2023-05-19T07:17:46.614Z,77.51
2023-05-19T07:20:13.648Z,77.58
2023-05-19T07:22:40.419Z,77.97
2023-05-19T07:25:08.025Z,77.93
2023-05-19T07:27:35.096Z,77.82
2023-05-19T07:30:02.375Z,77.90
2023-05-19T07:32:29.133Z,78.07
2023-05-19T07:34:55.890Z,77.95
2023-05-19T07:37:22.695Z,77.85
2023-05-19T07:39:49.455Z,77.95
2023-05-19T07:42:19.698Z,77.69
2023-05-19T07:44:46.495Z,77.84
2023-05-19T07:47:13.210Z,77.86
2023-05-19T07:49:39.946Z,77.57
2023-05-19T07:52:07.318Z,77.48
2023-05-19T07:54:35.805Z,77.38
2023-05-19T07:57:02.722Z,77.34
2023-05-19T07:59:29.564Z,77.15
2023-05-19T08:01:56.479Z,76.91
2023-05-19T08:04:23.338Z,76.83
2023-05-19T08:06:50.168Z,76.76
2023-05-19T08:09:16.961Z,76.31
2023-05-19T08:11:44.881Z,76.16
2023-05-19T08:14:11.785Z,76.01
2023-05-19T08:16:38.755Z,75.63
2023-05-19T08:19:07.328Z,75.42
2023-05-19T08:21:34.764Z,75.45
2023-05-19T08:24:01.993Z,75.43
2023-05-19T08:26:29.127Z,75.39
2023-05-19T08:28:56.044Z,75.33
2023-05-19T08:31:22.924Z,75.03
2023-05-19T08:33:49.816Z,75.04
2023-05-19T08:36:17.147Z,74.77
2023-05-19T08:38:45.230Z,74.69
2023-05-19T08:41:12.257Z,74.53
2023-05-19T08:43:39.981Z,74.34
2023-05-19T08:46:08.381Z,74.38
2023-05-19T08:48:36.891Z,74.38
2023-05-19T08:51:14.678Z,74.36
2023-05-19T08:53:48.362Z,74.23
2023-05-19T08:56:20.037Z,74.27
2023-05-19T08:58:49.206Z,74.16
2023-05-19T09:01:19.658Z,74.00
2023-05-19T09:03:50.049Z,73.88
2023-05-19T09:06:17.361Z,73.77
2023-05-19T09:08:44.484Z,73.52
2023-05-19T09:11:11.691Z,73.39
2023-05-19T09:13:39.206Z,73.41
2023-05-19T09:16:06.679Z,73.22
2023-05-19T09:18:34.034Z,73.12
2023-05-19T09:21:03.150Z,73.07
2023-05-19T09:23:35.149Z,72.94
2023-05-19T09:26:08.890Z,72.76
2023-05-19T09:28:38.026Z,72.77
2023-05-19T09:31:06.302Z,72.63
2023-05-19T09:33:35.157Z,72.42
2023-05-19T09:36:03.425Z,72.14
2023-05-19T09:38:30.197Z,71.75
2023-05-19T09:40:58.423Z,71.35
2023-05-19T09:43:33.705Z,71.27
2023-05-19T09:46:04.370Z,71.22
2023-05-19T09:48:31.293Z,70.90
2023-05-19T09:50:58.923Z,70.16
2023-05-19T09:53:26.325Z,69.75
2023-05-19T09:55:59.375Z,69.45
2023-05-19T09:58:27.176Z,69.38
2023-05-19T10:00:59.555Z,69.12
2023-05-19T10:03:27.202Z,68.81
2023-05-19T10:05:55.050Z,68.40
2023-05-19T10:08:27.621Z,68.36
2023-05-19T10:10:54.985Z,68.11
2023-05-19T10:13:22.574Z,68.13
2023-05-19T10:15:58.140Z,67.88
2023-05-19T10:18:28.014Z,67.63
2023-05-19T10:20:56.007Z,67.55
2023-05-19T10:23:23.620Z,67.42
2023-05-19T10:25:54.914Z,67.11
2023-05-19T10:28:25.661Z,66.84
2023-05-19T10:30:56.719Z,66.74
2023-05-19T10:33:38.886Z,66.58
2023-05-19T10:36:24.593Z,66.30
2023-05-19T10:39:06.341Z,65.94
2023-05-19T10:41:52.238Z,65.81
2023-05-19T10:44:34.351Z,65.74
2023-05-19T10:47:01.253Z,65.75
2023-05-19T10:49:28.179Z,65.52
2023-05-19T10:51:57.944Z,65.47
2023-05-19T10:54:46.824Z,65.37
2023-05-19T10:57:17.709Z,65.17
2023-05-19T10:59:44.879Z,65.04
2023-05-19T11:02:42.050Z,64.99
2023-05-19T11:05:09.886Z,64.41
2023-05-19T11:07:36.912Z,64.14
2023-05-19T11:10:07.801Z,63.90
2023-05-19T11:12:45.234Z,63.75
2023-05-19T11:15:14.159Z,63.31
2023-05-19T11:17:45.290Z,63.24
2023-05-19T11:20:26.431Z,63.05
2023-05-19T11:23:19.269Z,63.38
2023-05-19T11:25:54.508Z,63.08
2023-05-19T11:28:26.848Z,63.16
2023-05-19T11:30:59.183Z,62.95
2023-05-19T11:33:30.196Z,62.42
2023-05-19T11:36:00.366Z,62.36
2023-05-19T11:38:28.669Z,62.30
2023-05-19T11:40:56.639Z,62.53
2023-05-19T11:43:26.488Z,62.09
2023-05-19T11:45:56.486Z,61.98
2023-05-19T11:48:24.708Z,62.01
2023-05-19T11:50:52.572Z,61.40
2023-05-19T11:53:22.257Z,60.98
2023-05-19T11:55:49.852Z,61.10
2023-05-19T11:58:17.568Z,60.91
2023-05-19T12:00:48.286Z,60.49
2023-05-19T12:03:15.537Z,60.45
2023-05-19T12:05:48.585Z,60.00
2023-05-19T12:08:17.899Z,59.74
2023-05-19T12:10:50.193Z,59.49
2023-05-19T12:13:21.144Z,59.11
2023-05-19T12:15:47.892Z,59.08
2023-05-19T12:18:14.779Z,59.07
2023-05-19T12:20:41.922Z,58.46
2023-05-19T12:23:09.152Z,58.11
2023-05-19T12:25:36.594Z,57.95
2023-05-19T12:28:04.953Z,57.69
2023-05-19T12:30:33.451Z,57.52
2023-05-19T12:33:02.010Z,57.74
2023-05-19T12:35:30.864Z,57.33
2023-05-19T12:38:03.103Z,57.56
2023-05-19T12:40:30.429Z,57.69
2023-05-19T12:42:59.352Z,57.20
2023-05-19T12:45:28.636Z,56.56
2023-05-19T12:47:56.178Z,56.29
2023-05-19T12:50:31.395Z,56.57
2023-05-19T12:53:00.009Z,56.40
2023-05-19T12:55:27.062Z,55.87
2023-05-19T12:57:58.203Z,55.64
2023-05-19T13:00:28.510Z,55.40
2023-05-19T13:03:05.130Z,54.38
2023-05-19T13:05:40.452Z,54.73
2023-05-19T13:08:09.375Z,54.79
2023-05-19T13:10:38.128Z,53.76
2023-05-19T13:13:06.083Z,53.51
2023-05-19T13:15:35.529Z,53.61
2023-05-19T13:18:04.736Z,53.75
2023-05-19T13:20:33.388Z,53.61
2023-05-19T13:23:01.020Z,53.32
2023-05-19T13:25:28.195Z,53.07
2023-05-19T13:27:55.363Z,53.10
2023-05-19T13:30:22.828Z,53.14
2023-05-19T13:32:49.590Z,52.62
2023-05-19T13:35:16.442Z,52.62
2023-05-19T13:37:43.604Z,52.89
2023-05-19T13:40:11.088Z,53.07
2023-05-19T13:42:38.155Z,52.42
2023-05-19T13:45:05.419Z,52.37
2023-05-19T13:47:32.331Z,52.17
2023-05-19T13:49:59.422Z,52.50
2023-05-19T13:52:28.326Z,51.92
2023-05-19T13:54:57.527Z,51.72
2023-05-19T13:57:25.634Z,51.18
2023-05-19T14:00:01.860Z,51.03
2023-05-19T14:02:30.467Z,51.13
2023-05-19T14:04:57.728Z,50.61
2023-05-19T14:07:25.843Z,50.89
2023-05-19T14:09:56.400Z,50.87
2023-05-19T14:12:27.652Z,50.61
2023-05-19T14:15:07.082Z,50.24
2023-05-19T14:17:34.854Z,50.53
2023-05-19T14:20:01.953Z,50.29
2023-05-19T14:22:28.752Z,50.14
2023-05-19T14:24:55.590Z,49.65
2023-05-19T14:27:22.585Z,49.85
2023-05-19T14:29:49.450Z,49.59
2023-05-19T14:32:16.766Z,49.50
2023-05-19T14:34:43.593Z,50.17
2023-05-19T14:37:11.510Z,49.62
2023-05-19T14:39:38.390Z,49.18
2023-05-19T14:42:05.492Z,48.70
2023-05-19T14:44:35.325Z,49.36
2023-05-19T14:47:02.483Z,49.21
2023-05-19T14:49:29.286Z,49.48
2023-05-19T14:51:56.429Z,49.38
2023-05-19T14:54:23.213Z,48.66
2023-05-19T14:56:50.063Z,48.95
2023-05-19T14:59:16.854Z,48.57
2023-05-19T15:01:46.687Z,49.13
2023-05-19T15:04:13.580Z,49.03
2023-05-19T15:06:40.721Z,48.69
2023-05-19T15:09:07.519Z,48.81
2023-05-19T15:11:34.406Z,48.75
2023-05-19T15:14:01.187Z,48.32
2023-05-19T15:16:31.378Z,48.38
2023-05-19T15:18:58.254Z,48.18
2023-05-19T15:21:25.062Z,48.22
2023-05-19T15:23:51.889Z,47.65
2023-05-19T15:26:18.715Z,48.07
2023-05-19T15:28:45.436Z,47.46
2023-05-19T15:31:12.289Z,48.06
2023-05-19T15:33:39.107Z,47.52
2023-05-19T15:36:06.098Z,47.73
2023-05-19T15:38:36.452Z,47.59
2023-05-19T15:41:06.931Z,48.19
2023-05-19T15:43:34.017Z,47.88
2023-05-19T15:46:01.061Z,47.72
2023-05-19T15:48:29.167Z,48.18
2023-05-19T15:50:58.288Z,47.74
2023-05-19T15:53:25.918Z,48.61
2023-05-19T15:55:54.961Z,48.54
2023-05-19T15:58:21.786Z,48.74
2023-05-19T16:00:48.802Z,48.53
2023-05-19T16:03:15.788Z,48.50
2023-05-19T16:05:43.036Z,48.37
2023-05-19T16:08:09.806Z,48.36
2023-05-19T16:10:36.605Z,48.33
2023-05-19T16:13:03.436Z,48.09
2023-05-19T16:15:30.292Z,48.19
2023-05-19T16:17:57.414Z,48.22
2023-05-19T16:20:27.973Z,48.56
2023-05-19T16:22:55.577Z,49.02
2023-05-19T16:25:22.895Z,49.07
2023-05-19T16:27:50.327Z,48.88
2023-05-19T16:30:17.357Z,49.16
2023-05-19T16:32:44.469Z,48.97
2023-05-19T16:35:11.327Z,49.37
2023-05-19T16:37:38.127Z,49.36
2023-05-19T16:40:05.836Z,48.86
2023-05-19T16:42:32.706Z,49.73
2023-05-19T16:44:59.477Z,49.80
2023-05-19T16:47:26.358Z,49.35
2023-05-19T16:49:53.187Z,49.77
2023-05-19T16:52:20.290Z,50.00
2023-05-19T16:54:47.112Z,50.07
2023-05-19T16:57:17.023Z,50.33
2023-05-19T16:59:43.917Z,49.95
2023-05-19T17:02:10.793Z,50.42
2023-05-19T17:04:37.652Z,50.35
2023-05-19T17:07:04.707Z,50.06
2023-05-19T17:09:31.579Z,50.45
2023-05-19T17:11:58.529Z,50.48
2023-05-19T17:14:25.368Z,50.48
2023-05-19T17:16:52.718Z,50.32
2023-05-19T17:19:19.849Z,50.25
2023-05-19T17:21:46.673Z,49.96
2023-05-19T17:24:13.474Z,50.63
2023-05-19T17:26:40.271Z,50.69
2023-05-19T17:29:07.016Z,51.29
2023-05-19T17:31:33.926Z,52.13
2023-05-19T17:34:00.901Z,53.16
2023-05-19T17:36:27.645Z,53.35
2023-05-19T17:38:54.653Z,53.86
2023-05-19T17:41:21.997Z,54.18
2023-05-19T17:43:48.803Z,54.73
2023-05-19T17:46:15.986Z,54.82
2023-05-19T17:48:43.393Z,55.45
2023-05-19T17:51:10.300Z,55.46
2023-05-19T17:53:37.340Z,56.14
2023-05-19T17:56:07.048Z,56.41
2023-05-19T17:58:34.371Z,56.81
2023-05-19T18:01:01.526Z,57.01
2023-05-19T18:03:28.737Z,57.26
2023-05-19T18:05:55.940Z,57.50
2023-05-19T18:08:23.086Z,57.73
2023-05-19T18:10:51.840Z,57.71
2023-05-19T18:13:22.861Z,57.72
2023-05-19T18:15:49.700Z,57.83
2023-05-19T18:18:16.478Z,58.15
2023-05-19T18:20:45.637Z,58.13
2023-05-19T18:23:12.544Z,58.16
2023-05-19T18:25:40.031Z,58.43
2023-05-19T18:28:06.898Z,58.42
2023-05-19T18:30:33.896Z,58.60
2023-05-19T18:33:03.755Z,58.67
2023-05-19T18:35:31.106Z,58.89
2023-05-19T18:37:57.910Z,59.04
2023-05-19T18:40:24.802Z,58.82
2023-05-19T18:42:51.652Z,59.01
2023-05-19T18:45:18.569Z,59.05
2023-05-19T18:47:45.899Z,58.91
2023-05-19T18:50:13.257Z,58.83
2023-05-19T18:52:40.376Z,58.65
2023-05-19T18:55:07.723Z,58.86
2023-05-19T18:57:34.507Z,59.07
2023-05-19T19:00:02.594Z,59.12
2023-05-19T19:02:29.624Z,59.06
2023-05-19T19:04:56.508Z,58.89
2023-05-19T19:07:25.159Z,58.76
2023-05-19T19:09:51.941Z,58.67
2023-05-19T19:12:20.288Z,58.85
2023-05-19T19:14:47.377Z,58.61
2023-05-19T19:17:14.329Z,58.43
2023-05-19T19:19:41.353Z,58.58
2023-05-19T19:22:09.893Z,58.41
2023-05-19T19:24:36.643Z,58.44
2023-05-19T19:27:04.050Z,58.35
2023-05-19T19:29:30.943Z,58.46
2023-05-19T19:31:57.778Z,58.83
2023-05-19T19:34:24.576Z,58.91
2023-05-19T19:36:51.815Z,59.11
2023-05-19T19:39:18.628Z,59.42
2023-05-19T19:41:45.664Z,59.42
2023-05-19T19:44:13.693Z,59.82
2023-05-19T19:46:40.630Z,59.84
2023-05-19T19:49:07.734Z,60.03
2023-05-19T19:51:34.569Z,60.20
2023-05-19T19:54:01.357Z,60.07
2023-05-19T19:56:28.233Z,60.47
2023-05-19T19:58:56.918Z,60.67
2023-05-19T20:01:27.653Z,60.82
2023-05-19T20:03:55.463Z,60.86
2023-05-19T20:06:22.423Z,60.84
2023-05-19T20:08:49.799Z,61.02
2023-05-19T20:11:17.483Z,61.12
2023-05-19T20:13:44.292Z,61.09
2023-05-19T20:16:11.202Z,61.31
2023-05-19T20:18:38.770Z,61.32
2023-05-19T20:21:05.652Z,61.27
2023-05-19T20:23:32.475Z,61.45
2023-05-19T20:26:11.097Z,61.54
2023-05-19T20:28:39.168Z,61.62
2023-05-19T20:31:06.473Z,61.58
2023-05-19T20:33:33.326Z,61.82
2023-05-19T20:36:00.268Z,62.00
2023-05-19T20:38:27.242Z,62.26
2023-05-19T20:40:56.688Z,62.31
2023-05-19T20:43:23.471Z,62.53
2023-05-19T20:45:50.537Z,62.76
2023-05-19T20:48:17.405Z,62.52
2023-05-19T20:50:44.319Z,62.56
2023-05-19T20:53:11.056Z,62.95
2023-05-19T20:55:39.135Z,63.34
2023-05-19T20:58:06.127Z,63.43
2023-05-19T21:00:33.190Z,63.49
2023-05-19T21:03:02.391Z,63.84
2023-05-19T21:05:29.456Z,64.01
2023-05-19T21:07:56.448Z,64.06
2023-05-19T21:10:23.352Z,63.90
2023-05-19T21:12:50.171Z,63.96
2023-05-19T21:15:16.998Z,64.33
2023-05-19T21:17:43.797Z,64.17
2023-05-19T21:20:11.093Z,64.75
2023-05-19T21:22:37.884Z,64.62
2023-05-19T21:25:05.069Z,64.81
2023-05-19T21:27:33.001Z,64.97
2023-05-19T21:30:00.346Z,64.94
2023-05-19T21:32:27.946Z,64.92
2023-05-19T21:34:54.787Z,65.11
2023-05-19T21:37:21.965Z,65.33
2023-05-19T21:39:49.077Z,65.51
2023-05-19T21:42:15.856Z,65.77
2023-05-19T21:44:42.641Z,65.40
2023-05-19T21:47:09.501Z,65.14
2023-05-19T21:49:36.300Z,65.20
2023-05-19T21:52:03.068Z,65.19
2023-05-19T21:54:29.808Z,65.00
2023-05-19T21:56:56.593Z,64.85
2023-05-19T21:59:24.881Z,64.57
2023-05-19T22:01:52.614Z,64.16
2023-05-19T22:04:21.269Z,64.33
2023-05-19T22:06:48.059Z,64.41
2023-05-19T22:09:14.947Z,64.54
2023-05-19T22:11:41.876Z,64.68
2023-05-19T22:14:08.840Z,64.52
2023-05-19T22:16:35.759Z,64.66
2023-05-19T22:19:02.636Z,64.59
2023-05-19T22:21:29.534Z,64.46
2023-05-19T22:23:56.311Z,64.82
2023-05-19T22:26:23.147Z,65.13
2023-05-19T22:28:50.484Z,65.05
2023-05-19T22:31:17.808Z,65.26
2023-05-19T22:33:44.822Z,65.32
2023-05-19T22:36:11.707Z,65.31
2023-05-19T22:38:38.525Z,65.29
2023-05-19T22:41:05.660Z,65.32
2023-05-19T22:43:32.522Z,65.33
2023-05-19T22:45:59.471Z,65.28
2023-05-19T22:48:26.394Z,65.35
2023-05-19T22:50:53.209Z,65.47
2023-05-19T22:53:19.948Z,65.23
2023-05-19T22:55:46.812Z,65.39
2023-05-19T22:58:13.669Z,65.03
2023-05-19T23:00:40.601Z,64.94
2023-05-19T23:03:07.444Z,64.97
2023-05-19T23:05:34.732Z,64.87
2023-05-19T23:08:01.701Z,64.57
2023-05-19T23:10:28.453Z,64.61
2023-05-19T23:12:55.352Z,64.21
2023-05-19T23:15:22.166Z,64.36
2023-05-19T23:17:48.960Z,63.95
2023-05-19T23:20:15.960Z,64.03
2023-05-19T23:22:42.890Z,63.85
2023-05-19T23:25:10.402Z,64.05
2023-05-19T23:27:37.530Z,64.00
2023-05-19T23:30:05.062Z,64.05
2023-05-19T23:32:32.382Z,64.22
2023-05-19T23:35:12.718Z,64.14
2023-05-19T23:37:39.786Z,64.42
2023-05-19T23:40:07.579Z,64.55
2023-05-19T23:42:34.488Z,64.71
2023-05-19T23:45:01.392Z,64.97
2023-05-19T23:47:28.255Z,64.79
2023-05-19T23:49:55.119Z,64.75
2023-05-19T23:52:21.923Z,64.87
2023-05-19T23:54:48.921Z,65.32
2023-05-19T23:57:15.840Z,65.31
2023-05-19T23:59:43.199Z,65.29
